Time;durP1;ratioP1;P1;durP2;ratioP2;P2;SDS_P1;SDS_P2;PMS_P1;PMS_P2;Temp;Humidity;BMP_temperature;BMP_pressure;BME280_temperature;BME280_humidity;BME280_pressure;Samples;Min_cycle;Max_cycle;Signal;HPM_P1;HPM_P2
2021/01/31 00:00:30;;;;;;;19.92;13.63;;;2.40;79.80;;;;;;5092931;28;20044;-73
2021/01/31 00:02:59;;;;;;;21.38;13.80;;;2.30;78.70;;;;;;5083936;28;20052;-74
2021/01/31 00:05:26;;;;;;;21.70;14.27;;;2.40;79.80;;;;;;5088581;28;20152;-73
2021/01/31 00:07:55;;;;;;;20.15;13.18;;;2.40;79.80;;;;;;5091170;28;20048;-73
2021/01/31 00:10:26;;;;;;;19.58;13.65;;;2.40;79.80;;;;;;5091760;28;20067;-74
2021/01/31 00:12:54;;;;;;;20.98;13.95;;;2.30;79.70;;;;;;5087996;28;20043;-73
2021/01/31 00:15:26;;;;;;;23.00;14.82;;;2.30;79.70;;;;;;5089051;28;20040;-73
2021/01/31 00:17:53;;;;;;;22.67;14.13;;;2.30;79.70;;;;;;5091525;28;20127;-74
2021/01/31 00:20:22;;;;;;;23.33;14.95;;;2.30;79.70;;;;;;5091963;28;20048;-74
2021/01/31 00:22:49;;;;;;;22.70;15.38;;;2.30;80.00;;;;;;5087457;28;20607;-75
2021/01/31 00:25:18;;;;;;;22.10;14.18;;;2.30;79.80;;;;;;5090814;28;20051;-74
2021/01/31 00:27:45;;;;;;;24.58;15.05;;;2.30;79.80;;;;;;5091162;28;20048;-75
2021/01/31 00:30:16;;;;;;;25.90;15.73;;;2.30;80.80;;;;;;5092976;28;20060;-74
2021/01/31 00:32:43;;;;;;;23.05;14.60;;;2.30;80.80;;;;;;5088582;28;20513;-75
2021/01/31 00:35:12;;;;;;;22.48;14.70;;;2.30;80.80;;;;;;5090521;28;20535;-74
2021/01/31 00:37:39;;;;;;;23.85;15.35;;;2.30;81.60;;;;;;5091855;28;20048;-73
2021/01/31 00:40:07;;;;;;;22.00;14.48;;;2.30;80.90;;;;;;5093061;28;20421;-74
2021/01/31 00:42:35;;;;;;;25.25;14.80;;;2.30;80.60;;;;;;5087344;28;20442;-74
2021/01/31 00:45:04;;;;;;;23.23;15.82;;;2.30;80.60;;;;;;5088340;28;20059;-74
2021/01/31 00:47:31;;;;;;;25.25;15.60;;;2.30;80.60;;;;;;5086682;28;20055;-74
2021/01/31 00:49:58;;;;;;;23.40;15.85;;;2.30;80.80;;;;;;5088379;28;20394;-73
2021/01/31 00:52:25;;;;;;;25.85;15.50;;;2.30;79.90;;;;;;5087520;28;20502;-73
2021/01/31 00:54:52;;;;;;;23.98;15.15;;;2.30;80.60;;;;;;5085994;28;20047;-73
2021/01/31 00:57:19;;;;;;;23.85;15.68;;;2.30;79.80;;;;;;5087055;28;20143;-74
2021/01/31 00:59:46;;;;;;;26.08;16.05;;;2.30;80.30;;;;;;5092229;28;20068;-73
2021/01/31 01:02:16;;;;;;;23.63;15.10;;;2.40;80.80;;;;;;5086257;28;20141;-74
2021/01/31 01:04:44;;;;;;;26.38;15.65;;;2.30;79.70;;;;;;5089888;28;20051;-74
2021/01/31 01:07:12;;;;;;;25.92;17.23;;;2.30;79.70;;;;;;5090928;28;20059;-74
2021/01/31 01:09:39;;;;;;;24.38;16.63;;;2.30;80.50;;;;;;5092243;28;20048;-74
2021/01/31 01:12:07;;;;;;;32.42;17.17;;;2.30;79.80;;;;;;5086158;28;20047;-73
2021/01/31 01:14:34;;;;;;;28.40;16.88;;;2.30;80.10;;;;;;5089662;28;20044;-73
2021/01/31 01:17:02;;;;;;;31.63;18.27;;;2.30;80.40;;;;;;5088457;28;20048;-74
2021/01/31 01:19:30;;;;;;;26.55;16.95;;;2.20;79.60;;;;;;5085645;28;20482;-74
2021/01/31 01:21:57;;;;;;;27.67;17.05;;;2.30;79.80;;;;;;5085291;28;20391;-74
2021/01/31 01:24:24;;;;;;;29.45;18.83;;;2.30;79.80;;;;;;5086346;28;20063;-75
2021/01/31 01:26:52;;;;;;;27.63;17.10;;;2.30;79.90;;;;;;5088447;28;20052;-74
2021/01/31 01:29:19;;;;;;;26.58;16.42;;;2.20;79.60;;;;;;5087254;28;20050;-76
2021/01/31 01:31:46;;;;;;;28.73;17.75;;;2.20;79.60;;;;;;5087102;28;20087;-73
2021/01/31 01:34:14;;;;;;;28.60;16.98;;;2.30;79.70;;;;;;5087496;28;20060;-74
2021/01/31 01:36:41;;;;;;;29.10;18.02;;;2.20;78.70;;;;;;5088675;28;20055;-74
2021/01/31 01:39:08;;;;;;;27.88;17.85;;;2.30;79.70;;;;;;5090791;28;20056;-74
2021/01/31 01:41:40;;;;;;;27.95;18.13;;;2.20;79.50;;;;;;5086160;28;20511;-74
2021/01/31 01:44:08;;;;;;;28.52;18.13;;;2.20;79.30;;;;;;5089049;28;20418;-73
2021/01/31 01:46:42;;;;;;;31.83;19.02;;;2.20;79.00;;;;;;5088603;28;20417;-74
2021/01/31 01:49:19;;;;;;;29.58;19.25;;;2.20;78.60;;;;;;5088594;28;20513;-74
2021/01/31 01:51:50;;;;;;;29.38;18.73;;;2.20;79.60;;;;;;5086304;28;20056;-73
2021/01/31 01:54:22;;;;;;;28.00;18.00;;;2.20;79.60;;;;;;5086262;28;20051;-74
2021/01/31 01:56:54;;;;;;;31.73;19.67;;;2.20;79.00;;;;;;5089090;28;20424;-74
2021/01/31 01:59:22;;;;;;;30.00;17.85;;;2.20;78.70;;;;;;5091116;28;20047;-74
2021/01/31 02:02:00;;;;;;;31.88;19.30;;;2.20;78.20;;;;;;5081008;28;20409;-75
2021/01/31 02:04:30;;;;;;;29.45;17.85;;;2.20;78.50;;;;;;5084380;28;20106;-73
2021/01/31 02:06:57;;;;;;;31.08;18.95;;;2.20;77.50;;;;;;5085463;28;20406;-75
2021/01/31 02:09:24;;;;;;;31.60;18.70;;;2.20;78.50;;;;;;5088793;28;20798;-74
2021/01/31 02:11:53;;;;;;;30.75;18.48;;;2.20;78.20;;;;;;5088089;28;20063;-73
2021/01/31 02:14:20;;;;;;;27.92;17.83;;;2.10;78.60;;;;;;5088741;28;20040;-74
2021/01/31 02:16:55;;;;;;;33.10;18.85;;;2.10;78.20;;;;;;5090102;28;20046;-73
2021/01/31 02:19:55;;;;;;;28.88;16.58;;;2.10;78.60;;;;;;5088139;28;20055;-75
2021/01/31 02:22:51;;;;;;;35.17;18.70;;;2.00;78.20;;;;;;5087280;28;20425;-75
2021/01/31 02:25:52;;;;;;;29.90;17.98;;;2.00;78.00;;;;;;5088655;28;20055;-73
2021/01/31 02:28:45;;;;;;;27.30;16.63;;;2.00;77.70;;;;;;5082146;28;20052;-74
2021/01/31 02:31:46;;;;;;;31.70;18.48;;;1.90;75.60;;;;;;5081592;28;20055;-73
2021/01/31 02:34:17;;;;;;;32.15;18.85;;;1.90;78.10;;;;;;5084299;28;20051;-72
2021/01/31 02:36:55;;;;;;;31.83;18.38;;;1.90;78.70;;;;;;5088432;28;20125;-72
2021/01/31 02:39:41;;;;;;;29.38;18.45;;;1.80;78.70;;;;;;5090022;28;20047;-73
2021/01/31 02:42:21;;;;;;;28.13;17.15;;;1.80;78.70;;;;;;5084406;28;20059;-75
2021/01/31 02:45:04;;;;;;;33.28;18.80;;;1.80;77.70;;;;;;5083106;28;20048;-72
2021/01/31 02:47:33;;;;;;;32.25;19.50;;;1.70;77.80;;;;;;5086214;28;20048;-74
2021/01/31 02:50:05;;;;;;;29.88;19.15;;;1.80;79.00;;;;;;5084439;28;20044;-73
2021/01/31 02:52:37;;;;;;;36.85;19.85;;;1.70;78.60;;;;;;5085227;28;20040;-73
2021/01/31 02:55:09;;;;;;;34.38;19.98;;;1.80;79.30;;;;;;5086654;28;20047;-73
2021/01/31 02:57:40;;;;;;;31.38;19.88;;;1.70;78.70;;;;;;5087145;28;20055;-74
2021/01/31 03:00:12;;;;;;;31.40;19.42;;;1.70;78.40;;;;;;5089274;28;20056;-72
2021/01/31 03:02:47;;;;;;;30.30;19.52;;;1.70;78.30;;;;;;5087218;28;20055;-73
2021/01/31 03:05:19;;;;;;;31.27;19.00;;;1.70;78.60;;;;;;5086999;28;20052;-73
2021/01/31 03:07:55;;;;;;;32.13;19.80;;;1.70;77.90;;;;;;5087709;28;20043;-74
2021/01/31 03:10:26;;;;;;;30.13;18.95;;;1.70;78.10;;;;;;5088601;28;20051;-73
2021/01/31 03:12:58;;;;;;;30.60;18.52;;;1.70;76.00;;;;;;5084598;28;20824;-73
2021/01/31 03:15:31;;;;;;;35.50;19.60;;;1.70;76.70;;;;;;5086914;28;20052;-73
2021/01/31 03:18:01;;;;;;;32.70;20.05;;;1.70;76.30;;;;;;5085212;28;20066;-74
2021/01/31 03:20:32;;;;;;;31.33;19.75;;;1.70;76.80;;;;;;5086473;28;20055;-74
2021/01/31 03:23:06;;;;;;;31.77;19.70;;;1.70;74.70;;;;;;5084349;28;20068;-73
2021/01/31 03:25:38;;;;;;;29.92;19.50;;;1.60;75.00;;;;;;5083978;28;20422;-73
2021/01/31 03:28:05;;;;;;;29.90;17.45;;;1.70;75.00;;;;;;5087703;28;20048;-74
2021/01/31 03:30:32;;;;;;;30.65;19.17;;;1.70;76.00;;;;;;5085320;28;20051;-73
2021/01/31 03:33:02;;;;;;;33.72;20.17;;;1.70;75.40;;;;;;5085724;28;20139;-73
2021/01/31 03:35:34;;;;;;;34.30;20.85;;;1.70;76.50;;;;;;5082635;28;20040;-73
2021/01/31 03:38:08;;;;;;;32.28;21.23;;;1.70;76.30;;;;;;5087652;28;20051;-73
2021/01/31 03:40:36;;;;;;;33.28;20.48;;;1.70;76.50;;;;;;5084068;28;20130;-73
2021/01/31 03:43:03;;;;;;;32.65;21.23;;;1.70;75.80;;;;;;5083683;28;20051;-73
2021/01/31 03:45:37;;;;;;;32.83;21.27;;;1.70;74.50;;;;;;5087225;28;20036;-73
2021/01/31 03:48:10;;;;;;;32.78;18.90;;;1.70;75.20;;;;;;5083333;28;20405;-73
2021/01/31 03:50:38;;;;;;;31.25;18.65;;;1.70;74.20;;;;;;5087714;28;20055;-74
2021/01/31 03:53:06;;;;;;;31.20;18.67;;;1.70;73.60;;;;;;5085270;28;20064;-73
2021/01/31 03:55:33;;;;;;;31.08;19.33;;;1.70;74.60;;;;;;5086098;28;20047;-74
2021/01/31 03:58:03;;;;;;;34.00;20.70;;;1.70;74.90;;;;;;5085656;28;20109;-73
2021/01/31 04:00:32;;;;;;;31.02;18.05;;;1.70;74.80;;;;;;5087814;28;20059;-74
2021/01/31 04:03:07;;;;;;;35.00;19.98;;;1.60;73.90;;;;;;5084291;28;20071;-74
2021/01/31 04:05:39;;;;;;;28.38;17.98;;;1.60;75.60;;;;;;5083581;28;20070;-72
2021/01/31 04:08:09;;;;;;;32.15;19.25;;;1.60;74.40;;;;;;5086653;28;20062;-73
2021/01/31 04:10:41;;;;;;;33.45;19.98;;;1.60;75.90;;;;;;5085438;28;20048;-73
2021/01/31 04:13:10;;;;;;;31.58;18.83;;;1.60;76.00;;;;;;5082319;28;20425;-74
2021/01/31 04:15:44;;;;;;;32.30;18.95;;;1.50;76.30;;;;;;5085972;28;20048;-75
2021/01/31 04:18:12;;;;;;;32.38;20.23;;;1.60;76.80;;;;;;5087519;28;20052;-73
2021/01/31 04:20:39;;;;;;;29.50;18.92;;;1.60;76.20;;;;;;5085826;28;20067;-75
2021/01/31 04:23:06;;;;;;;30.60;18.38;;;1.60;76.00;;;;;;5083224;28;20155;-73
2021/01/31 04:25:34;;;;;;;35.78;19.67;;;1.60;75.70;;;;;;5083562;28;20047;-73
2021/01/31 04:28:09;;;;;;;29.42;18.42;;;1.60;75.70;;;;;;5086462;28;20426;-73
2021/01/31 04:30:40;;;;;;;29.67;18.08;;;1.50;74.30;;;;;;5089288;28;20155;-73
2021/01/31 04:33:08;;;;;;;31.80;18.45;;;1.50;74.20;;;;;;5086662;28;20055;-74
2021/01/31 04:35:35;;;;;;;31.23;19.30;;;1.50;73.80;;;;;;5087121;28;20490;-72
2021/01/31 04:38:04;;;;;;;28.77;17.58;;;1.50;73.60;;;;;;5086142;28;20425;-73
2021/01/31 04:40:32;;;;;;;28.67;18.05;;;1.50;72.50;;;;;;5089555;28;20047;-73
2021/01/31 04:43:01;;;;;;;28.40;18.10;;;1.50;73.40;;;;;;5082446;28;20052;-74
2021/01/31 04:45:28;;;;;;;27.33;17.70;;;1.50;72.80;;;;;;5088677;28;20043;-74
2021/01/31 04:48:07;;;;;;;30.08;18.15;;;1.50;71.20;;;;;;5088424;28;20080;-73
2021/01/31 04:50:43;;;;;;;34.92;19.00;;;1.50;72.20;;;;;;5088970;28;20058;-73
2021/01/31 04:53:39;;;;;;;28.95;17.95;;;1.50;72.00;;;;;;5088804;28;20419;-74
2021/01/31 04:56:26;;;;;;;26.65;17.33;;;1.50;71.70;;;;;;5086171;28;20123;-74
2021/01/31 04:59:01;;;;;;;27.83;17.42;;;1.50;71.90;;;;;;5089362;28;20562;-74
2021/01/31 05:01:32;;;;;;;28.23;17.75;;;1.50;71.20;;;;;;5087124;28;20051;-74
2021/01/31 05:04:00;;;;;;;26.75;17.08;;;1.60;71.30;;;;;;5089794;28;20052;-74
2021/01/31 05:06:31;;;;;;;28.52;17.05;;;1.60;70.40;;;;;;5087122;28;20067;-73
2021/01/31 05:09:03;;;;;;;26.45;17.70;;;1.60;70.90;;;;;;5087079;28;20052;-74
2021/01/31 05:11:35;;;;;;;29.20;17.15;;;1.60;69.40;;;;;;5088021;28;20043;-74
2021/01/31 05:14:07;;;;;;;27.85;17.88;;;1.70;69.70;;;;;;5087917;28;20494;-73
2021/01/31 05:16:35;;;;;;;28.42;18.30;;;1.70;69.20;;;;;;5089321;28;20048;-74
2021/01/31 05:19:05;;;;;;;27.08;17.17;;;1.80;69.80;;;;;;5091195;28;20103;-75
2021/01/31 05:21:35;;;;;;;24.90;16.38;;;1.70;68.10;;;;;;5087591;28;20398;-75
2021/01/31 05:24:06;;;;;;;27.95;16.65;;;1.80;69.40;;;;;;5088519;28;20054;-72
2021/01/31 05:26:36;;;;;;;29.38;17.45;;;1.80;69.80;;;;;;5088394;28;20052;-74
2021/01/31 05:29:09;;;;;;;25.58;16.02;;;1.80;69.30;;;;;;5090621;28;20075;-73
2021/01/31 05:31:36;;;;;;;24.15;15.45;;;1.80;69.00;;;;;;5087565;28;20062;-73
2021/01/31 05:34:04;;;;;;;25.10;16.73;;;1.80;68.00;;;;;;5090815;28;20047;-74
2021/01/31 05:36:33;;;;;;;24.50;15.82;;;1.80;68.10;;;;;;5086497;28;20485;-73
2021/01/31 05:39:02;;;;;;;25.65;15.80;;;1.90;67.40;;;;;;5089598;28;20052;-73
2021/01/31 05:41:38;;;;;;;23.80;15.30;;;1.90;67.40;;;;;;5085500;28;20539;-74
2021/01/31 05:44:09;;;;;;;22.30;15.07;;;1.90;67.40;;;;;;5087559;28;20054;-74
2021/01/31 05:46:41;;;;;;;27.67;17.27;;;1.80;66.70;;;;;;5086607;28;20048;-74
2021/01/31 05:49:12;;;;;;;25.42;15.55;;;1.80;67.40;;;;;;5090696;28;20052;-73
2021/01/31 05:51:44;;;;;;;25.17;16.05;;;1.90;67.40;;;;;;5087187;28;20498;-73
2021/01/31 05:54:18;;;;;;;23.33;15.32;;;1.90;66.20;;;;;;5086713;28;20048;-73
2021/01/31 05:56:47;;;;;;;26.38;15.98;;;1.80;67.10;;;;;;5089609;28;20044;-74
2021/01/31 05:59:15;;;;;;;23.92;15.45;;;1.90;67.60;;;;;;5088637;28;20472;-73
2021/01/31 06:01:54;;;;;;;24.52;15.93;;;1.90;66.50;;;;;;5085883;28;20048;-73
2021/01/31 06:04:22;;;;;;;26.42;16.63;;;1.90;65.80;;;;;;5086078;28;20048;-72
2021/01/31 06:06:51;;;;;;;27.08;16.63;;;1.90;65.80;;;;;;5089602;28;20051;-72
2021/01/31 06:09:30;;;;;;;24.75;14.88;;;1.90;66.50;;;;;;5089899;28;20481;-73
2021/01/31 06:12:07;;;;;;;24.48;15.52;;;1.90;65.20;;;;;;5084725;28;20052;-73
2021/01/31 06:14:36;;;;;;;27.75;17.05;;;1.90;66.10;;;;;;5086800;28;20048;-73
2021/01/31 06:17:06;;;;;;;23.27;15.50;;;1.90;66.10;;;;;;5087764;28;20051;-73
2021/01/31 06:19:36;;;;;;;27.00;17.75;;;1.90;67.00;;;;;;5091213;28;20141;-73
2021/01/31 06:22:06;;;;;;;23.60;15.13;;;1.70;66.20;;;;;;5083666;28;20066;-73
2021/01/31 06:24:43;;;;;;;23.35;15.85;;;1.70;66.20;;;;;;5084217;28;20063;-73
2021/01/31 06:27:27;;;;;;;25.13;16.52;;;1.70;67.40;;;;;;5085756;28;20059;-74
2021/01/31 06:30:06;;;;;;;25.73;15.93;;;1.80;67.50;;;;;;5088267;28;20048;-73
2021/01/31 06:32:36;;;;;;;24.60;15.90;;;1.80;66.00;;;;;;5083772;28;20051;-73
2021/01/31 06:35:07;;;;;;;26.48;16.95;;;1.80;65.80;;;;;;5084443;28;20413;-73
2021/01/31 06:37:43;;;;;;;25.52;15.70;;;1.70;63.90;;;;;;5082266;28;20048;-74
2021/01/31 06:40:22;;;;;;;23.15;15.27;;;1.70;63.80;;;;;;5087745;28;20062;-74
2021/01/31 06:43:00;;;;;;;24.20;15.25;;;1.80;66.30;;;;;;5086012;28;20051;-73
2021/01/31 06:45:35;;;;;;;22.15;15.40;;;1.80;65.80;;;;;;5083326;28;20410;-73
2021/01/31 06:48:27;;;;;;;22.20;15.05;;;1.80;66.00;;;;;;5087457;28;20055;-73
2021/01/31 06:51:08;;;;;;;22.13;14.10;;;1.80;63.20;;;;;;5085588;28;20533;-74
2021/01/31 06:54:03;;;;;;;22.67;14.88;;;1.90;63.50;;;;;;5083115;28;20048;-73
2021/01/31 06:56:43;;;;;;;24.38;13.95;;;1.80;62.80;;;;;;5084213;28;20047;-72
2021/01/31 06:59:37;;;;;;;22.95;15.30;;;1.90;63.50;;;;;;5083605;28;20056;-74
2021/01/31 07:02:33;;;;;;;22.77;14.20;;;1.90;62.00;;;;;;5084089;28;20048;-75
2021/01/31 07:05:05;;;;;;;;;;;1.90;62.30;;;;;;5083053;28;20054;-74
2021/01/31 07:08:03;;;;;;;23.38;14.48;;;1.90;61.80;;;;;;5084618;28;19959;-73
2021/01/31 07:10:53;;;;;;;23.83;14.52;;;1.90;61.80;;;;;;5086831;28;20063;-74
2021/01/31 07:13:38;;;;;;;22.10;14.73;;;2.00;62.50;;;;;;5083209;28;20502;-73
2021/01/31 07:16:19;;;;;;;20.65;14.13;;;1.90;61.60;;;;;;5086048;28;20036;-73
2021/01/31 07:18:52;;;;;;;23.17;14.98;;;2.00;60.20;;;;;;5084374;28;20052;-73
2021/01/31 07:21:28;;;;;;;24.90;15.13;;;2.00;59.60;;;;;;5086711;28;20048;-74
2021/01/31 07:24:02;;;;;;;20.83;13.57;;;2.00;60.10;;;;;;5088087;28;20052;-73
2021/01/31 07:26:34;;;;;;;22.20;14.48;;;2.00;60.40;;;;;;5087215;28;20054;-73
2021/01/31 07:29:05;;;;;;;21.75;13.55;;;2.00;61.10;;;;;;5087767;28;20501;-75
2021/01/31 07:31:45;;;;;;;22.20;14.60;;;2.00;60.60;;;;;;5085419;28;20040;-74
2021/01/31 07:34:17;;;;;;;23.60;14.88;;;2.10;59.70;;;;;;5081908;28;20513;-74
2021/01/31 07:36:59;;;;;;;20.42;13.48;;;2.10;59.70;;;;;;5085637;28;20056;-74
2021/01/31 07:39:32;;;;;;;23.70;14.55;;;2.10;61.10;;;;;;5089090;28;20127;-74
2021/01/31 07:41:59;;;;;;;21.50;14.30;;;2.10;60.30;;;;;;5086115;28;20494;-74
2021/01/31 07:44:30;;;;;;;20.80;13.10;;;2.10;59.70;;;;;;5081724;28;20056;-74
2021/01/31 07:46:58;;;;;;;21.77;14.05;;;2.10;59.70;;;;;;5087638;28;20529;-73
2021/01/31 07:49:25;;;;;;;20.42;12.15;;;2.10;59.50;;;;;;5086248;28;20528;-73
2021/01/31 07:52:08;;;;;;;17.50;11.95;;;2.10;58.50;;;;;;5084244;28;20056;-74
2021/01/31 07:54:38;;;;;;;20.67;11.65;;;2.10;58.20;;;;;;5085305;28;20062;-73
2021/01/31 07:57:32;;;;;;;21.70;13.70;;;2.10;58.10;;;;;;5086719;28;20051;-73
2021/01/31 07:59:59;;;;;;;20.95;12.85;;;2.20;58.40;;;;;;5089393;28;20066;-74
2021/01/31 08:02:36;;;;;;;21.20;13.15;;;2.20;58.00;;;;;;5087267;28;20048;-74
2021/01/31 08:05:04;;;;;;;21.38;13.57;;;2.20;58.30;;;;;;5087221;28;20075;-74
2021/01/31 08:08:04;;;;;;;20.90;13.35;;;2.10;59.60;;;;;;5090717;28;20048;-74
2021/01/31 08:10:49;;;;;;;20.63;12.73;;;2.10;59.40;;;;;;5091860;28;20058;-73
2021/01/31 08:13:36;;;;;;;;;;;2.20;58.70;;;;;;5089769;28;20048;-73
2021/01/31 08:16:41;;;;;;;24.80;14.15;;;2.20;56.40;;;;;;5092087;28;19919;-74
2021/01/31 08:19:12;;;;;;;22.15;13.55;;;2.20;57.10;;;;;;5091504;28;20062;-73
2021/01/31 08:21:54;;;;;;;22.42;15.25;;;2.30;58.00;;;;;;5087294;28;20048;-74
2021/01/31 08:25:10;;;;;;;22.27;14.27;;;2.30;56.50;;;;;;5088567;28;20048;-74
2021/01/31 08:27:50;;;;;;;20.55;13.55;;;2.40;57.70;;;;;;5009261;28;20069;-74
2021/01/31 08:30:23;;;;;;;23.35;14.35;;;2.30;57.40;;;;;;5077082;28;20051;-75
2021/01/31 08:33:27;;;;;;;19.85;13.07;;;2.40;56.80;;;;;;5090116;28;20048;-75
2021/01/31 08:36:07;;;;;;;19.92;13.40;;;2.40;56.90;;;;;;5092291;28;20525;-74
2021/01/31 08:38:38;;;;;;;21.25;12.98;;;2.50;56.20;;;;;;5092871;28;20052;-74
2021/01/31 08:41:31;;;;;;;20.95;12.80;;;2.50;57.50;;;;;;5089631;28;20406;-75
2021/01/31 08:44:00;;;;;;;18.17;12.60;;;2.50;55.00;;;;;;5083825;28;20052;-74
2021/01/31 08:46:29;;;;;;;22.13;13.77;;;2.50;55.00;;;;;;5091025;28;20040;-74
2021/01/31 08:48:58;;;;;;;20.85;12.85;;;2.60;55.30;;;;;;5091237;28;20044;-74
2021/01/31 08:51:27;;;;;;;23.25;14.00;;;2.70;55.50;;;;;;5089170;28;20127;-75
2021/01/31 08:54:06;;;;;;;19.42;12.20;;;2.70;56.90;;;;;;5087696;28;20061;-75
2021/01/31 08:56:36;;;;;;;19.02;11.90;;;2.70;54.80;;;;;;5087250;28;20052;-74
2021/01/31 08:59:04;;;;;;;19.17;12.38;;;2.70;54.40;;;;;;5092407;28;21404;-75
2021/01/31 09:01:38;;;;;;;20.58;13.30;;;2.80;53.30;;;;;;5086649;28;20054;-75
2021/01/31 09:04:08;;;;;;;18.60;11.67;;;2.90;52.50;;;;;;5088137;28;20062;-74
2021/01/31 09:06:38;;;;;;;17.88;10.95;;;2.90;53.60;;;;;;5089971;28;20063;-75
2021/01/31 09:09:05;;;;;;;18.33;10.98;;;2.80;51.10;;;;;;5091979;28;20048;-74
2021/01/31 09:11:32;;;;;;;17.33;11.75;;;2.80;52.50;;;;;;5091564;28;20048;-74
2021/01/31 09:14:12;;;;;;;20.48;12.70;;;2.80;52.40;;;;;;5088722;28;20063;-74
2021/01/31 09:16:39;;;;;;;18.92;11.68;;;2.90;52.60;;;;;;5087706;28;20044;-74
2021/01/31 09:19:09;;;;;;;17.20;11.13;;;2.80;52.50;;;;;;5090373;28;20127;-74
2021/01/31 09:21:38;;;;;;;18.38;11.35;;;2.90;53.40;;;;;;5088454;28;20044;-75
2021/01/31 09:24:10;;;;;;;16.98;11.60;;;3.00;52.60;;;;;;5087951;28;20048;-75
2021/01/31 09:26:38;;;;;;;18.95;12.02;;;3.00;52.00;;;;;;5086801;28;20036;-74
2021/01/31 09:29:10;;;;;;;19.75;11.90;;;3.10;51.90;;;;;;5090682;28;20044;-74
2021/01/31 09:31:42;;;;;;;16.58;10.50;;;3.10;49.90;;;;;;5087955;28;20097;-73
2021/01/31 09:34:10;;;;;;;17.38;11.30;;;3.00;49.60;;;;;;5087506;28;20414;-74
2021/01/31 09:36:38;;;;;;;17.25;11.00;;;3.00;50.00;;;;;;5086968;28;20059;-75
2021/01/31 09:39:07;;;;;;;15.15;10.00;;;3.00;51.00;;;;;;5091131;28;20105;-74
2021/01/31 09:41:35;;;;;;;16.63;10.68;;;3.00;49.20;;;;;;5086648;28;20043;-73
2021/01/31 09:44:05;;;;;;;17.30;10.02;;;3.00;51.10;;;;;;5084342;28;20048;-75
2021/01/31 09:46:34;;;;;;;15.90;10.68;;;3.00;49.20;;;;;;5084633;28;20059;-75
2021/01/31 09:49:04;;;;;;;17.08;10.85;;;3.10;49.30;;;;;;5090974;28;20056;-75
2021/01/31 09:51:32;;;;;;;15.52;10.20;;;3.20;50.50;;;;;;5085551;28;20056;-74
2021/01/31 09:54:15;;;;;;;15.77;9.70;;;3.30;47.40;;;;;;5086538;28;20062;-76
2021/01/31 09:56:45;;;;;;;16.48;10.52;;;3.20;46.80;;;;;;5086035;28;20048;-75
2021/01/31 09:59:19;;;;;;;17.67;11.05;;;3.20;47.20;;;;;;5089203;28;20051;-75
2021/01/31 10:01:47;;;;;;;15.32;9.98;;;3.20;48.50;;;;;;5085498;28;20416;-75
2021/01/31 10:04:20;;;;;;;14.70;9.95;;;3.40;46.90;;;;;;5085605;28;20062;-74
2021/01/31 10:06:49;;;;;;;15.20;10.00;;;3.30;47.00;;;;;;5087396;28;20056;-74
2021/01/31 10:09:30;;;;;;;17.05;11.35;;;3.40;48.60;;;;;;5088685;28;20603;-75
2021/01/31 10:12:16;;;;;;;15.60;10.35;;;3.40;47.10;;;;;;5084627;28;20077;-73
2021/01/31 10:14:44;;;;;;;14.98;10.55;;;3.40;45.00;;;;;;5086771;28;20051;-74
2021/01/31 10:17:13;;;;;;;13.35;8.95;;;3.40;45.00;;;;;;5087668;28;20044;-74
2021/01/31 10:19:40;;;;;;;14.02;9.07;;;3.30;44.90;;;;;;5086110;28;20522;-75
2021/01/31 10:22:14;;;;;;;14.43;9.38;;;3.40;44.50;;;;;;5082890;28;20047;-73
2021/01/31 10:24:46;;;;;;;;;;;3.30;45.10;;;;;;5088403;28;20044;-73
2021/01/31 10:27:33;;;;;;;13.35;9.63;;;3.30;44.70;;;;;;5082926;28;19942;-74
2021/01/31 10:30:24;;;;;;;15.73;9.90;;;3.60;45.20;;;;;;5080942;28;20109;-73
2021/01/31 10:32:51;;;;;;;12.88;9.00;;;3.40;44.90;;;;;;5080583;28;20099;-73
2021/01/31 10:35:25;;;;;;;14.60;10.07;;;3.60;43.40;;;;;;5085946;28;20418;-74
2021/01/31 10:37:53;;;;;;;13.32;9.48;;;3.60;43.90;;;;;;5087291;28;20055;-74
2021/01/31 10:40:21;;;;;;;13.05;8.70;;;3.60;42.00;;;;;;5087495;28;20046;-74
2021/01/31 10:43:09;;;;;;;12.57;9.27;;;3.80;42.00;;;;;;5081267;28;20131;-73
2021/01/31 10:45:37;;;;;;;14.25;9.35;;;3.80;41.20;;;;;;5087856;28;20036;-74
2021/01/31 10:48:04;;;;;;;12.20;8.70;;;3.90;41.90;;;;;;5084147;28;20509;-74
2021/01/31 10:50:31;;;;;;;13.65;8.50;;;3.90;40.80;;;;;;5083238;28;20044;-74
2021/01/31 10:52:58;;;;;;;16.27;9.10;;;3.90;40.70;;;;;;5082465;28;20048;-74
2021/01/31 10:55:26;;;;;;;15.18;8.57;;;4.00;40.20;;;;;;5085766;28;20498;-73
2021/01/31 10:57:53;;;;;;;13.55;9.20;;;3.90;40.60;;;;;;5083836;28;20043;-73
2021/01/31 11:00:21;;;;;;;10.98;7.97;;;4.10;39.70;;;;;;5084876;28;20126;-74
2021/01/31 11:02:47;;;;;;;14.00;8.65;;;4.10;37.90;;;;;;5084883;28;20052;-74
2021/01/31 11:05:15;;;;;;;14.52;9.02;;;3.80;38.60;;;;;;5087255;28;20044;-74
2021/01/31 11:07:43;;;;;;;15.60;10.20;;;3.80;39.10;;;;;;5078126;28;20040;-73
2021/01/31 11:10:11;;;;;;;14.45;9.52;;;3.90;40.90;;;;;;5083083;28;20079;-73
2021/01/31 11:12:40;;;;;;;13.55;9.30;;;3.80;39.80;;;;;;5082827;28;20047;-74
2021/01/31 11:15:10;;;;;;;15.70;9.50;;;3.80;40.20;;;;;;5084090;28;20048;-74
2021/01/31 11:17:36;;;;;;;15.77;10.25;;;3.90;40.60;;;;;;5085872;28;20047;-74
2021/01/31 11:20:05;;;;;;;14.93;9.32;;;3.90;40.30;;;;;;5087005;28;20058;-74
2021/01/31 11:22:32;;;;;;;13.27;8.95;;;4.20;39.00;;;;;;5083124;28;20048;-75
2021/01/31 11:24:59;;;;;;;13.85;9.60;;;4.00;38.40;;;;;;5087339;28;20500;-73
2021/01/31 11:27:25;;;;;;;14.35;9.30;;;4.20;40.30;;;;;;5084072;28;20050;-74
2021/01/31 11:29:53;;;;;;;12.70;8.70;;;4.10;37.30;;;;;;5087512;28;20139;-74
2021/01/31 11:32:20;;;;;;;16.05;9.98;;;4.30;38.00;;;;;;5083455;28;20417;-75
2021/01/31 11:34:47;;;;;;;18.83;9.65;;;4.20;37.40;;;;;;5083787;28;20048;-73
2021/01/31 11:37:14;;;;;;;14.20;10.02;;;4.20;37.00;;;;;;5083618;28;20044;-74
2021/01/31 11:39:41;;;;;;;13.40;9.05;;;4.20;37.40;;;;;;5093402;28;20493;-73
2021/01/31 11:42:08;;;;;;;13.68;9.50;;;4.30;36.20;;;;;;5090922;28;20051;-74
2021/01/31 11:44:35;;;;;;;14.32;9.48;;;4.30;37.50;;;;;;5095098;28;20055;-74
2021/01/31 11:47:03;;;;;;;13.85;8.80;;;4.40;36.80;;;;;;5086359;28;20054;-74
2021/01/31 11:49:30;;;;;;;14.65;9.32;;;4.20;35.90;;;;;;5094380;28;20052;-73
2021/01/31 11:51:57;;;;;;;16.42;9.38;;;4.20;37.40;;;;;;5092074;28;20913;-74
2021/01/31 11:54:24;;;;;;;17.40;10.35;;;4.30;37.50;;;;;;5093969;28;20047;-73
2021/01/31 11:56:51;;;;;;;15.75;9.95;;;4.30;35.90;;;;;;5092354;28;20054;-75
2021/01/31 11:59:18;;;;;;;15.05;10.27;;;4.20;37.40;;;;;;5086742;28;20044;-74
2021/01/31 12:01:45;;;;;;;14.90;9.25;;;4.30;37.50;;;;;;5091369;28;20052;-74
2021/01/31 12:04:12;;;;;;;15.85;10.55;;;4.30;34.90;;;;;;5090909;28;20044;-74
2021/01/31 12:06:39;;;;;;;13.95;9.07;;;4.50;35.60;;;;;;5094131;28;20044;-74
2021/01/31 12:09:06;;;;;;;16.63;9.07;;;4.60;34.40;;;;;;5093308;28;20496;-75
2021/01/31 12:11:33;;;;;;;15.27;9.85;;;4.30;33.50;;;;;;5087804;28;20425;-74
2021/01/31 12:14:00;;;;;;;15.90;9.32;;;4.30;37.40;;;;;;5091117;28;20162;-73
2021/01/31 12:16:27;;;;;;;15.10;10.02;;;4.40;34.90;;;;;;5095610;28;20040;-74
2021/01/31 12:18:54;;;;;;;12.35;9.00;;;4.50;35.60;;;;;;5092652;28;20446;-74
2021/01/31 12:21:23;;;;;;;12.77;7.97;;;4.80;33.70;;;;;;5092839;28;20052;-74
2021/01/31 12:23:50;;;;;;;13.98;8.80;;;4.50;32.60;;;;;;5089623;28;20058;-75
2021/01/31 12:26:19;;;;;;;14.85;9.80;;;4.50;32.90;;;;;;5090647;28;20123;-74
2021/01/31 12:28:46;;;;;;;14.73;9.38;;;4.50;33.00;;;;;;5093337;28;20047;-74
2021/01/31 12:31:12;;;;;;;13.75;8.80;;;4.80;32.00;;;;;;5088638;28;20048;-75
2021/01/31 12:33:39;;;;;;;13.95;8.77;;;4.80;31.50;;;;;;5088441;28;20062;-75
2021/01/31 12:36:07;;;;;;;13.85;8.85;;;4.90;32.50;;;;;;5092568;28;20047;-74
2021/01/31 12:38:35;;;;;;;13.82;8.45;;;4.90;31.10;;;;;;5092938;28;20052;-73
2021/01/31 12:41:02;;;;;;;14.65;9.07;;;4.60;29.90;;;;;;5091804;28;21177;-74
2021/01/31 12:43:29;;;;;;;12.05;8.77;;;4.80;33.60;;;;;;5090192;28;20059;-75
2021/01/31 12:45:56;;;;;;;13.20;8.98;;;5.00;30.90;;;;;;5093473;28;20137;-74
2021/01/31 12:48:22;;;;;;;13.40;8.70;;;4.70;33.10;;;;;;5090846;28;20043;-75
2021/01/31 12:50:49;;;;;;;14.65;9.68;;;4.50;32.90;;;;;;5090138;28;20050;-74
2021/01/31 12:53:17;;;;;;;14.05;8.50;;;4.60;33.50;;;;;;5082562;28;20122;-76
2021/01/31 12:55:45;;;;;;;14.23;9.45;;;4.60;33.40;;;;;;5085678;28;20047;-74
2021/01/31 12:58:12;;;;;;;16.27;9.65;;;4.50;33.60;;;;;;5086528;28;20520;-75
2021/01/31 13:00:39;;;;;;;13.25;9.73;;;4.50;34.00;;;;;;5087655;28;20158;-74
2021/01/31 13:03:06;;;;;;;13.35;8.77;;;4.60;33.40;;;;;;5086355;28;20044;-75
2021/01/31 13:05:32;;;;;;;15.23;9.13;;;4.50;33.30;;;;;;5091547;28;20047;-74